首页
METAR-TAF:

METAR-TAF

机场 :

鹿屋, 日本

纬度: 31-22N, 经度: 130-50E, 海拔: 65米

当前天气观测

该预报发布于8小时和18分钟前的06:02 UTC
风速3节,风向北转西北
温度 20°C
湿度 94%
气压 1016 hPa
能見度: 5000
少量云层高于500英尺
散云层高于2500英尺
阴天层高于4000英尺
小雨, 轻雾

METAR: RJFY 240602Z 34003KT 5000 -RA BR FEW005 SCT025 OVC040 20/19 Q1016 RMK 2ST005 4CU025 8SC040 A3001 VIS VRB

时间: 23:20 (14:20 UTC)


TAF: 丢失

超过4000个机场的气象观测和天气预报(METAR&TAF报告)。

可查询的气象台以黄色和红色小点在地图上表示。

将鼠标移到小点上方,可查看气象台名称。

然后点击查看天气观测和预报。

如需切换地图:点击带黑十字的绿色按钮放大地图;点击带横线的绿色按钮缩小地图;或者点击绿色箭头查看邻近地区的地图。


METAR-TAF: